sensor_id;sensor_type;location;lat;lon;timestamp;P1;durP1;ratioP1;P2;durP2;ratioP2
41966;SDS011;27656;53.068;8.818;2023-12-22T00:00:55;14.10;;;2.30;;
41966;SDS011;27656;53.068;8.818;2023-12-22T00:03:22;14.10;;;2.27;;
41966;SDS011;27656;53.068;8.818;2023-12-22T00:05:49;10.97;;;2.53;;
41966;SDS011;27656;53.068;8.818;2023-12-22T00:08:15;13.70;;;2.63;;
41966;SDS011;27656;53.068;8.818;2023-12-22T00:10:42;6.53;;;1.47;;
41966;SDS011;27656;53.068;8.818;2023-12-22T00:13:08;6.87;;;1.30;;
41966;SDS011;27656;53.068;8.818;2023-12-22T00:15:34;14.60;;;2.23;;
41966;SDS011;27656;53.068;8.818;2023-12-22T00:18:01;5.10;;;1.70;;
41966;SDS011;27656;53.068;8.818;2023-12-22T00:20:27;8.90;;;2.53;;
41966;SDS011;27656;53.068;8.818;2023-12-22T00:22:54;11.20;;;1.50;;
41966;SDS011;27656;53.068;8.818;2023-12-22T00:25:21;7.40;;;1.93;;
41966;SDS011;27656;53.068;8.818;2023-12-22T00:27:47;6.93;;;1.50;;
41966;SDS011;27656;53.068;8.818;2023-12-22T00:30:14;8.97;;;1.80;;
41966;SDS011;27656;53.068;8.818;2023-12-22T00:32:41;8.57;;;1.50;;
41966;SDS011;27656;53.068;8.818;2023-12-22T00:35:07;10.87;;;1.80;;
41966;SDS011;27656;53.068;8.818;2023-12-22T00:37:34;6.10;;;1.53;;
41966;SDS011;27656;53.068;8.818;2023-12-22T00:40:01;17.10;;;2.13;;
41966;SDS011;27656;53.068;8.818;2023-12-22T00:42:30;11.60;;;2.47;;
41966;SDS011;27656;53.068;8.818;2023-12-22T00:44:56;14.60;;;1.90;;
41966;SDS011;27656;53.068;8.818;2023-12-22T00:47:23;7.50;;;2.17;;
41966;SDS011;27656;53.068;8.818;2023-12-22T00:49:49;8.10;;;1.80;;
41966;SDS011;27656;53.068;8.818;2023-12-22T00:52:16;10.60;;;1.80;;
41966;SDS011;27656;53.068;8.818;2023-12-22T00:54:42;10.00;;;2.30;;
41966;SDS011;27656;53.068;8.818;2023-12-22T00:57:09;7.67;;;1.47;;
41966;SDS011;27656;53.068;8.818;2023-12-22T00:59:35;9.27;;;1.87;;
41966;SDS011;27656;53.068;8.818;2023-12-22T01:02:02;7.87;;;1.40;;
41966;SDS011;27656;53.068;8.818;2023-12-22T01:04:28;8.63;;;1.80;;
41966;SDS011;27656;53.068;8.818;2023-12-22T01:06:55;16.87;;;1.70;;
41966;SDS011;27656;53.068;8.818;2023-12-22T01:09:21;8.87;;;1.60;;
41966;SDS011;27656;53.068;8.818;2023-12-22T01:11:48;14.80;;;2.03;;
41966;SDS011;27656;53.068;8.818;2023-12-22T01:14:15;12.27;;;2.00;;
41966;SDS011;27656;53.068;8.818;2023-12-22T01:16:41;10.77;;;2.17;;
41966;SDS011;27656;53.068;8.818;2023-12-22T01:19:08;12.07;;;2.13;;
41966;SDS011;27656;53.068;8.818;2023-12-22T01:21:34;9.60;;;1.70;;
41966;SDS011;27656;53.068;8.818;2023-12-22T01:24:01;12.30;;;1.80;;
41966;SDS011;27656;53.068;8.818;2023-12-22T01:26:27;12.73;;;2.07;;
41966;SDS011;27656;53.068;8.818;2023-12-22T01:28:54;7.90;;;1.93;;
41966;SDS011;27656;53.068;8.818;2023-12-22T01:31:20;13.07;;;1.93;;
41966;SDS011;27656;53.068;8.818;2023-12-22T01:33:47;13.20;;;2.07;;
41966;SDS011;27656;53.068;8.818;2023-12-22T01:36:13;10.43;;;2.07;;
41966;SDS011;27656;53.068;8.818;2023-12-22T01:38:40;9.00;;;1.67;;
41966;SDS011;27656;53.068;8.818;2023-12-22T01:41:06;7.07;;;1.70;;
41966;SDS011;27656;53.068;8.818;2023-12-22T01:43:34;12.17;;;2.00;;
41966;SDS011;27656;53.068;8.818;2023-12-22T01:46:01;9.20;;;1.77;;
41966;SDS011;27656;53.068;8.818;2023-12-22T01:48:28;13.03;;;2.13;;
41966;SDS011;27656;53.068;8.818;2023-12-22T01:50:56;7.53;;;1.50;;
41966;SDS011;27656;53.068;8.818;2023-12-22T01:53:26;12.10;;;1.93;;
41966;SDS011;27656;53.068;8.818;2023-12-22T01:55:53;10.70;;;1.90;;
41966;SDS011;27656;53.068;8.818;2023-12-22T01:58:24;6.47;;;1.80;;
41966;SDS011;27656;53.068;8.818;2023-12-22T02:00:55;15.30;;;1.90;;
41966;SDS011;27656;53.068;8.818;2023-12-22T02:03:22;11.40;;;2.20;;
41966;SDS011;27656;53.068;8.818;2023-12-22T02:05:49;5.53;;;1.33;;
41966;SDS011;27656;53.068;8.818;2023-12-22T02:08:19;12.00;;;1.57;;
41966;SDS011;27656;53.068;8.818;2023-12-22T02:10:49;7.57;;;1.30;;
41966;SDS011;27656;53.068;8.818;2023-12-22T02:13:15;3.60;;;1.20;;
41966;SDS011;27656;53.068;8.818;2023-12-22T02:15:42;2.20;;;0.93;;
41966;SDS011;27656;53.068;8.818;2023-12-22T02:18:12;6.53;;;1.43;;
41966;SDS011;27656;53.068;8.818;2023-12-22T02:20:45;7.23;;;1.00;;
41966;SDS011;27656;53.068;8.818;2023-12-22T02:23:12;2.13;;;0.70;;
41966;SDS011;27656;53.068;8.818;2023-12-22T02:25:38;6.47;;;1.17;;
41966;SDS011;27656;53.068;8.818;2023-12-22T02:28:05;2.87;;;1.00;;
41966;SDS011;27656;53.068;8.818;2023-12-22T02:30:43;5.33;;;1.40;;
41966;SDS011;27656;53.068;8.818;2023-12-22T02:33:19;4.20;;;1.30;;
41966;SDS011;27656;53.068;8.818;2023-12-22T02:35:49;4.90;;;1.30;;
41966;SDS011;27656;53.068;8.818;2023-12-22T02:38:17;3.37;;;1.20;;
41966;SDS011;27656;53.068;8.818;2023-12-22T02:40:45;5.77;;;1.10;;
41966;SDS011;27656;53.068;8.818;2023-12-22T02:43:12;7.83;;;1.30;;
41966;SDS011;27656;53.068;8.818;2023-12-22T02:45:38;7.60;;;1.17;;
41966;SDS011;27656;53.068;8.818;2023-12-22T02:48:05;8.93;;;1.20;;
41966;SDS011;27656;53.068;8.818;2023-12-22T02:50:32;13.00;;;2.03;;
41966;SDS011;27656;53.068;8.818;2023-12-22T02:52:58;11.90;;;1.93;;
41966;SDS011;27656;53.068;8.818;2023-12-22T02:55:25;8.60;;;1.40;;
41966;SDS011;27656;53.068;8.818;2023-12-22T02:57:51;7.83;;;1.70;;
41966;SDS011;27656;53.068;8.818;2023-12-22T03:00:18;9.30;;;2.40;;
41966;SDS011;27656;53.068;8.818;2023-12-22T03:02:44;12.20;;;1.93;;
41966;SDS011;27656;53.068;8.818;2023-12-22T03:05:11;8.70;;;2.03;;
41966;SDS011;27656;53.068;8.818;2023-12-22T03:07:37;9.33;;;1.60;;
41966;SDS011;27656;53.068;8.818;2023-12-22T03:10:04;13.53;;;2.27;;
41966;SDS011;27656;53.068;8.818;2023-12-22T03:12:31;11.40;;;2.00;;
41966;SDS011;27656;53.068;8.818;2023-12-22T03:14:57;12.93;;;2.10;;
41966;SDS011;27656;53.068;8.818;2023-12-22T03:17:24;4.63;;;1.43;;
41966;SDS011;27656;53.068;8.818;2023-12-22T03:19:50;9.10;;;2.03;;
41966;SDS011;27656;53.068;8.818;2023-12-22T03:22:17;14.33;;;3.13;;
41966;SDS011;27656;53.068;8.818;2023-12-22T03:24:43;15.33;;;2.40;;
41966;SDS011;27656;53.068;8.818;2023-12-22T03:27:10;13.33;;;3.60;;
41966;SDS011;27656;53.068;8.818;2023-12-22T03:29:37;12.73;;;2.37;;
41966;SDS011;27656;53.068;8.818;2023-12-22T03:32:03;8.53;;;1.90;;
41966;SDS011;27656;53.068;8.818;2023-12-22T03:34:30;10.10;;;1.93;;
41966;SDS011;27656;53.068;8.818;2023-12-22T03:36:56;11.00;;;2.83;;
41966;SDS011;27656;53.068;8.818;2023-12-22T03:39:23;16.67;;;2.40;;
41966;SDS011;27656;53.068;8.818;2023-12-22T03:41:49;12.00;;;2.23;;
41966;SDS011;27656;53.068;8.818;2023-12-22T03:44:16;11.43;;;1.57;;
41966;SDS011;27656;53.068;8.818;2023-12-22T03:46:43;10.73;;;1.40;;
41966;SDS011;27656;53.068;8.818;2023-12-22T03:49:09;7.80;;;1.37;;
41966;SDS011;27656;53.068;8.818;2023-12-22T03:51:36;12.33;;;1.97;;
41966;SDS011;27656;53.068;8.818;2023-12-22T03:54:04;8.80;;;1.73;;
41966;SDS011;27656;53.068;8.818;2023-12-22T03:56:30;6.47;;;1.40;;
41966;SDS011;27656;53.068;8.818;2023-12-22T03:58:56;8.13;;;1.23;;
41966;SDS011;27656;53.068;8.818;2023-12-22T04:01:23;5.13;;;1.40;;
41966;SDS011;27656;53.068;8.818;2023-12-22T04:03:49;6.77;;;1.73;;
41966;SDS011;27656;53.068;8.818;2023-12-22T04:06:16;5.50;;;1.33;;
41966;SDS011;27656;53.068;8.818;2023-12-22T04:08:42;7.77;;;1.50;;
41966;SDS011;27656;53.068;8.818;2023-12-22T04:11:09;12.90;;;2.07;;
41966;SDS011;27656;53.068;8.818;2023-12-22T04:13:35;12.57;;;2.10;;
41966;SDS011;27656;53.068;8.818;2023-12-22T04:16:02;7.43;;;1.60;;
41966;SDS011;27656;53.068;8.818;2023-12-22T04:18:30;15.23;;;1.87;;
41966;SDS011;27656;53.068;8.818;2023-12-22T04:20:58;8.63;;;2.23;;
41966;SDS011;27656;53.068;8.818;2023-12-22T04:23:24;8.10;;;2.03;;
41966;SDS011;27656;53.068;8.818;2023-12-22T04:25:51;8.23;;;1.97;;
41966;SDS011;27656;53.068;8.818;2023-12-22T04:28:18;12.07;;;1.70;;
41966;SDS011;27656;53.068;8.818;2023-12-22T04:30:44;12.13;;;2.10;;
41966;SDS011;27656;53.068;8.818;2023-12-22T04:33:11;14.33;;;2.57;;
41966;SDS011;27656;53.068;8.818;2023-12-22T04:35:37;9.80;;;2.20;;
41966;SDS011;27656;53.068;8.818;2023-12-22T04:38:03;17.47;;;2.63;;
41966;SDS011;27656;53.068;8.818;2023-12-22T04:40:30;12.33;;;2.67;;
41966;SDS011;27656;53.068;8.818;2023-12-22T04:42:56;14.63;;;2.27;;
41966;SDS011;27656;53.068;8.818;2023-12-22T04:45:23;15.10;;;2.47;;
41966;SDS011;27656;53.068;8.818;2023-12-22T04:47:49;16.07;;;2.63;;
41966;SDS011;27656;53.068;8.818;2023-12-22T04:50:16;10.57;;;3.60;;
41966;SDS011;27656;53.068;8.818;2023-12-22T04:52:43;15.40;;;2.93;;
41966;SDS011;27656;53.068;8.818;2023-12-22T04:55:09;16.80;;;2.40;;
41966;SDS011;27656;53.068;8.818;2023-12-22T04:57:36;21.47;;;3.23;;
41966;SDS011;27656;53.068;8.818;2023-12-22T05:00:02;19.00;;;3.00;;
41966;SDS011;27656;53.068;8.818;2023-12-22T05:02:29;18.73;;;3.00;;
41966;SDS011;27656;53.068;8.818;2023-12-22T05:04:56;19.47;;;3.13;;
41966;SDS011;27656;53.068;8.818;2023-12-22T05:07:22;12.80;;;2.60;;
41966;SDS011;27656;53.068;8.818;2023-12-22T05:09:49;22.30;;;3.53;;
41966;SDS011;27656;53.068;8.818;2023-12-22T05:12:15;15.27;;;3.07;;
41966;SDS011;27656;53.068;8.818;2023-12-22T05:14:41;19.97;;;2.80;;
41966;SDS011;27656;53.068;8.818;2023-12-22T05:17:08;8.10;;;1.73;;
41966;SDS011;27656;53.068;8.818;2023-12-22T05:19:34;8.93;;;1.83;;
41966;SDS011;27656;53.068;8.818;2023-12-22T05:22:01;16.80;;;1.93;;
41966;SDS011;27656;53.068;8.818;2023-12-22T05:24:27;8.77;;;2.43;;
41966;SDS011;27656;53.068;8.818;2023-12-22T05:26:54;15.57;;;2.50;;
41966;SDS011;27656;53.068;8.818;2023-12-22T05:29:20;12.23;;;2.77;;
41966;SDS011;27656;53.068;8.818;2023-12-22T05:31:47;15.10;;;2.40;;
41966;SDS011;27656;53.068;8.818;2023-12-22T05:34:13;10.03;;;1.63;;
41966;SDS011;27656;53.068;8.818;2023-12-22T05:36:40;8.90;;;1.60;;
41966;SDS011;27656;53.068;8.818;2023-12-22T05:39:06;8.00;;;1.63;;
41966;SDS011;27656;53.068;8.818;2023-12-22T05:41:35;9.30;;;1.80;;
41966;SDS011;27656;53.068;8.818;2023-12-22T05:44:05;6.03;;;1.63;;
41966;SDS011;27656;53.068;8.818;2023-12-22T05:46:37;15.93;;;2.77;;
41966;SDS011;27656;53.068;8.818;2023-12-22T05:49:04;10.63;;;1.70;;
41966;SDS011;27656;53.068;8.818;2023-12-22T05:51:38;8.50;;;1.50;;
41966;SDS011;27656;53.068;8.818;2023-12-22T05:54:08;10.83;;;1.60;;
41966;SDS011;27656;53.068;8.818;2023-12-22T05:56:36;5.87;;;1.37;;
41966;SDS011;27656;53.068;8.818;2023-12-22T05:59:03;7.43;;;1.00;;
41966;SDS011;27656;53.068;8.818;2023-12-22T06:01:29;7.10;;;1.30;;
41966;SDS011;27656;53.068;8.818;2023-12-22T06:03:56;12.73;;;1.67;;
41966;SDS011;27656;53.068;8.818;2023-12-22T06:06:22;7.73;;;1.30;;
41966;SDS011;27656;53.068;8.818;2023-12-22T06:08:49;7.97;;;1.60;;
41966;SDS011;27656;53.068;8.818;2023-12-22T06:11:16;14.63;;;2.20;;
41966;SDS011;27656;53.068;8.818;2023-12-22T06:13:42;7.50;;;1.47;;
41966;SDS011;27656;53.068;8.818;2023-12-22T06:16:15;7.50;;;1.47;;
41966;SDS011;27656;53.068;8.818;2023-12-22T06:18:41;9.53;;;2.10;;
41966;SDS011;27656;53.068;8.818;2023-12-22T06:21:09;5.07;;;1.27;;
41966;SDS011;27656;53.068;8.818;2023-12-22T06:23:36;4.43;;;1.20;;
41966;SDS011;27656;53.068;8.818;2023-12-22T06:26:09;7.97;;;1.40;;
41966;SDS011;27656;53.068;8.818;2023-12-22T06:28:39;6.87;;;1.00;;
41966;SDS011;27656;53.068;8.818;2023-12-22T06:31:07;5.53;;;0.90;;
41966;SDS011;27656;53.068;8.818;2023-12-22T06:33:44;5.50;;;0.80;;
41966;SDS011;27656;53.068;8.818;2023-12-22T06:36:21;6.97;;;0.90;;
41966;SDS011;27656;53.068;8.818;2023-12-22T06:38:48;5.73;;;1.43;;
41966;SDS011;27656;53.068;8.818;2023-12-22T06:41:23;7.67;;;1.70;;
41966;SDS011;27656;53.068;8.818;2023-12-22T06:43:54;9.63;;;2.13;;
41966;SDS011;27656;53.068;8.818;2023-12-22T06:46:21;11.40;;;1.73;;
41966;SDS011;27656;53.068;8.818;2023-12-22T06:48:49;10.60;;;1.70;;
41966;SDS011;27656;53.068;8.818;2023-12-22T06:51:29;9.87;;;2.53;;
41966;SDS011;27656;53.068;8.818;2023-12-22T06:53:57;9.10;;;1.60;;
41966;SDS011;27656;53.068;8.818;2023-12-22T06:56:25;13.93;;;1.70;;
41966;SDS011;27656;53.068;8.818;2023-12-22T06:58:55;8.23;;;1.53;;
41966;SDS011;27656;53.068;8.818;2023-12-22T07:01:29;8.33;;;1.77;;
41966;SDS011;27656;53.068;8.818;2023-12-22T07:03:57;8.47;;;1.43;;
41966;SDS011;27656;53.068;8.818;2023-12-22T07:06:31;4.83;;;1.43;;
41966;SDS011;27656;53.068;8.818;2023-12-22T07:11:38;11.47;;;2.07;;
41966;SDS011;27656;53.068;8.818;2023-12-22T07:14:06;13.80;;;2.57;;
41966;SDS011;27656;53.068;8.818;2023-12-22T07:16:33;13.07;;;2.23;;
41966;SDS011;27656;53.068;8.818;2023-12-22T07:19:00;10.23;;;2.10;;
41966;SDS011;27656;53.068;8.818;2023-12-22T07:21:27;18.57;;;2.40;;
41966;SDS011;27656;53.068;8.818;2023-12-22T07:23:53;16.30;;;2.37;;
41966;SDS011;27656;53.068;8.818;2023-12-22T07:26:20;10.77;;;2.23;;
41966;SDS011;27656;53.068;8.818;2023-12-22T07:28:50;14.00;;;2.40;;
41966;SDS011;27656;53.068;8.818;2023-12-22T07:31:19;11.67;;;2.30;;
41966;SDS011;27656;53.068;8.818;2023-12-22T07:33:45;12.73;;;2.70;;
41966;SDS011;27656;53.068;8.818;2023-12-22T07:36:14;22.83;;;2.83;;
41966;SDS011;27656;53.068;8.818;2023-12-22T07:38:40;23.43;;;3.10;;
41966;SDS011;27656;53.068;8.818;2023-12-22T07:41:07;17.80;;;3.37;;
41966;SDS011;27656;53.068;8.818;2023-12-22T07:43:34;16.23;;;2.40;;
41966;SDS011;27656;53.068;8.818;2023-12-22T07:46:01;15.77;;;2.67;;
41966;SDS011;27656;53.068;8.818;2023-12-22T07:48:28;14.60;;;2.73;;
41966;SDS011;27656;53.068;8.818;2023-12-22T07:50:54;26.07;;;2.97;;
41966;SDS011;27656;53.068;8.818;2023-12-22T07:53:21;18.23;;;3.23;;
41966;SDS011;27656;53.068;8.818;2023-12-22T07:55:47;18.37;;;3.30;;
41966;SDS011;27656;53.068;8.818;2023-12-22T07:58:14;21.17;;;3.23;;
41966;SDS011;27656;53.068;8.818;2023-12-22T08:00:40;21.13;;;2.93;;
41966;SDS011;27656;53.068;8.818;2023-12-22T08:03:07;21.07;;;3.40;;
41966;SDS011;27656;53.068;8.818;2023-12-22T08:05:33;20.37;;;3.40;;
41966;SDS011;27656;53.068;8.818;2023-12-22T08:08:00;23.47;;;3.50;;
41966;SDS011;27656;53.068;8.818;2023-12-22T08:10:27;16.90;;;3.23;;
41966;SDS011;27656;53.068;8.818;2023-12-22T08:12:53;18.77;;;3.50;;
41966;SDS011;27656;53.068;8.818;2023-12-22T08:15:20;12.33;;;2.80;;
41966;SDS011;27656;53.068;8.818;2023-12-22T08:17:58;23.37;;;3.50;;
41966;SDS011;27656;53.068;8.818;2023-12-22T08:20:25;15.30;;;2.57;;
41966;SDS011;27656;53.068;8.818;2023-12-22T08:22:58;18.57;;;3.07;;
41966;SDS011;27656;53.068;8.818;2023-12-22T08:25:30;13.20;;;2.40;;
41966;SDS011;27656;53.068;8.818;2023-12-22T08:27:57;20.90;;;3.43;;
41966;SDS011;27656;53.068;8.818;2023-12-22T08:30:23;17.37;;;2.97;;
41966;SDS011;27656;53.068;8.818;2023-12-22T08:32:50;18.87;;;3.20;;
41966;SDS011;27656;53.068;8.818;2023-12-22T08:35:17;13.40;;;2.97;;
41966;SDS011;27656;53.068;8.818;2023-12-22T08:37:44;17.37;;;3.40;;
41966;SDS011;27656;53.068;8.818;2023-12-22T08:40:10;18.73;;;3.47;;
41966;SDS011;27656;53.068;8.818;2023-12-22T08:42:37;16.30;;;3.17;;
41966;SDS011;27656;53.068;8.818;2023-12-22T08:45:03;17.83;;;3.87;;
41966;SDS011;27656;53.068;8.818;2023-12-22T08:47:31;10.93;;;3.13;;
41966;SDS011;27656;53.068;8.818;2023-12-22T08:49:58;21.50;;;3.43;;
41966;SDS011;27656;53.068;8.818;2023-12-22T08:52:25;23.00;;;3.13;;
41966;SDS011;27656;53.068;8.818;2023-12-22T08:54:51;18.03;;;2.53;;
41966;SDS011;27656;53.068;8.818;2023-12-22T08:57:18;20.63;;;2.53;;
41966;SDS011;27656;53.068;8.818;2023-12-22T08:59:44;24.27;;;3.40;;
41966;SDS011;27656;53.068;8.818;2023-12-22T09:02:10;21.67;;;3.30;;
41966;SDS011;27656;53.068;8.818;2023-12-22T09:04:37;20.93;;;3.23;;
41966;SDS011;27656;53.068;8.818;2023-12-22T09:07:05;23.90;;;3.13;;
41966;SDS011;27656;53.068;8.818;2023-12-22T09:09:31;13.80;;;3.00;;
41966;SDS011;27656;53.068;8.818;2023-12-22T09:11:57;9.90;;;2.20;;
41966;SDS011;27656;53.068;8.818;2023-12-22T09:14:24;15.50;;;3.23;;
41966;SDS011;27656;53.068;8.818;2023-12-22T09:16:50;11.53;;;2.70;;
41966;SDS011;27656;53.068;8.818;2023-12-22T09:19:17;18.13;;;2.37;;
41966;SDS011;27656;53.068;8.818;2023-12-22T09:21:44;9.43;;;1.60;;
41966;SDS011;27656;53.068;8.818;2023-12-22T09:24:10;8.60;;;1.73;;
41966;SDS011;27656;53.068;8.818;2023-12-22T09:26:38;8.33;;;1.43;;
41966;SDS011;27656;53.068;8.818;2023-12-22T09:29:05;5.57;;;1.23;;
41966;SDS011;27656;53.068;8.818;2023-12-22T09:31:32;6.70;;;1.20;;
41966;SDS011;27656;53.068;8.818;2023-12-22T09:33:59;5.13;;;1.40;;
41966;SDS011;27656;53.068;8.818;2023-12-22T09:36:26;9.20;;;1.30;;
41966;SDS011;27656;53.068;8.818;2023-12-22T09:38:52;9.30;;;1.90;;
41966;SDS011;27656;53.068;8.818;2023-12-22T09:41:19;14.00;;;2.03;;
41966;SDS011;27656;53.068;8.818;2023-12-22T09:43:45;7.03;;;1.60;;
41966;SDS011;27656;53.068;8.818;2023-12-22T09:46:15;4.93;;;1.33;;
41966;SDS011;27656;53.068;8.818;2023-12-22T09:48:44;9.23;;;1.50;;
41966;SDS011;27656;53.068;8.818;2023-12-22T09:51:11;14.47;;;2.30;;
41966;SDS011;27656;53.068;8.818;2023-12-22T09:53:40;11.83;;;2.03;;
41966;SDS011;27656;53.068;8.818;2023-12-22T09:56:08;13.43;;;2.40;;
41966;SDS011;27656;53.068;8.818;2023-12-22T09:58:35;12.93;;;2.27;;
41966;SDS011;27656;53.068;8.818;2023-12-22T10:01:02;10.93;;;2.47;;
41966;SDS011;27656;53.068;8.818;2023-12-22T10:03:33;17.47;;;2.63;;
41966;SDS011;27656;53.068;8.818;2023-12-22T10:06:01;13.67;;;2.63;;
41966;SDS011;27656;53.068;8.818;2023-12-22T10:08:28;10.67;;;2.90;;
41966;SDS011;27656;53.068;8.818;2023-12-22T10:10:55;11.03;;;2.10;;
41966;SDS011;27656;53.068;8.818;2023-12-22T10:13:22;15.27;;;2.23;;
41966;SDS011;27656;53.068;8.818;2023-12-22T10:15:48;7.93;;;2.07;;
41966;SDS011;27656;53.068;8.818;2023-12-22T10:18:15;10.20;;;2.13;;
41966;SDS011;27656;53.068;8.818;2023-12-22T10:20:43;14.47;;;2.17;;
41966;SDS011;27656;53.068;8.818;2023-12-22T10:23:10;12.60;;;2.43;;
41966;SDS011;27656;53.068;8.818;2023-12-22T10:25:37;14.40;;;2.30;;
41966;SDS011;27656;53.068;8.818;2023-12-22T10:28:09;19.00;;;3.27;;
41966;SDS011;27656;53.068;8.818;2023-12-22T10:30:36;8.97;;;2.00;;
41966;SDS011;27656;53.068;8.818;2023-12-22T10:33:04;12.97;;;2.07;;
41966;SDS011;27656;53.068;8.818;2023-12-22T10:35:31;8.60;;;2.27;;
41966;SDS011;27656;53.068;8.818;2023-12-22T10:37:58;11.00;;;2.53;;
41966;SDS011;27656;53.068;8.818;2023-12-22T10:40:28;14.17;;;3.10;;
41966;SDS011;27656;53.068;8.818;2023-12-22T10:42:55;12.70;;;2.53;;
41966;SDS011;27656;53.068;8.818;2023-12-22T10:45:22;11.47;;;2.23;;
41966;SDS011;27656;53.068;8.818;2023-12-22T10:47:49;12.23;;;3.40;;
41966;SDS011;27656;53.068;8.818;2023-12-22T10:50:19;8.67;;;1.50;;
41966;SDS011;27656;53.068;8.818;2023-12-22T10:52:48;9.00;;;1.70;;
41966;SDS011;27656;53.068;8.818;2023-12-22T10:55:16;8.23;;;2.10;;
41966;SDS011;27656;53.068;8.818;2023-12-22T10:57:46;8.27;;;1.53;;
41966;SDS011;27656;53.068;8.818;2023-12-22T11:00:15;9.17;;;1.90;;
41966;SDS011;27656;53.068;8.818;2023-12-22T11:02:47;9.93;;;1.60;;
41966;SDS011;27656;53.068;8.818;2023-12-22T11:05:15;10.90;;;1.47;;
41966;SDS011;27656;53.068;8.818;2023-12-22T11:07:46;9.63;;;1.70;;
41966;SDS011;27656;53.068;8.818;2023-12-22T11:10:17;10.37;;;1.70;;
41966;SDS011;27656;53.068;8.818;2023-12-22T11:12:46;8.37;;;1.60;;
41966;SDS011;27656;53.068;8.818;2023-12-22T11:15:13;8.97;;;2.17;;
41966;SDS011;27656;53.068;8.818;2023-12-22T11:17:41;7.40;;;2.03;;
41966;SDS011;27656;53.068;8.818;2023-12-22T11:20:13;4.80;;;1.40;;
41966;SDS011;27656;53.068;8.818;2023-12-22T11:22:40;7.70;;;1.30;;
41966;SDS011;27656;53.068;8.818;2023-12-22T11:25:09;9.80;;;1.63;;
41966;SDS011;27656;53.068;8.818;2023-12-22T11:27:40;9.70;;;1.70;;
41966;SDS011;27656;53.068;8.818;2023-12-22T11:30:09;9.57;;;2.10;;
41966;SDS011;27656;53.068;8.818;2023-12-22T11:32:37;9.97;;;1.80;;
41966;SDS011;27656;53.068;8.818;2023-12-22T11:35:05;10.80;;;1.73;;
41966;SDS011;27656;53.068;8.818;2023-12-22T11:37:35;13.83;;;2.30;;
41966;SDS011;27656;53.068;8.818;2023-12-22T11:40:02;10.43;;;1.70;;
41966;SDS011;27656;53.068;8.818;2023-12-22T11:42:30;11.67;;;2.13;;
41966;SDS011;27656;53.068;8.818;2023-12-22T11:45:00;8.87;;;1.30;;
41966;SDS011;27656;53.068;8.818;2023-12-22T11:47:27;11.17;;;1.43;;
41966;SDS011;27656;53.068;8.818;2023-12-22T11:49:54;13.80;;;1.77;;
41966;SDS011;27656;53.068;8.818;2023-12-22T11:52:25;11.07;;;2.10;;
41966;SDS011;27656;53.068;8.818;2023-12-22T11:54:56;9.83;;;1.80;;
41966;SDS011;27656;53.068;8.818;2023-12-22T11:57:56;15.17;;;1.77;;
41966;SDS011;27656;53.068;8.818;2023-12-22T12:02:55;13.00;;;2.03;;
41966;SDS011;27656;53.068;8.818;2023-12-22T12:05:22;8.20;;;1.73;;
41966;SDS011;27656;53.068;8.818;2023-12-22T12:07:49;14.77;;;2.53;;
41966;SDS011;27656;53.068;8.818;2023-12-22T12:13:08;10.47;;;1.90;;
41966;SDS011;27656;53.068;8.818;2023-12-22T12:15:36;9.70;;;2.37;;
41966;SDS011;27656;53.068;8.818;2023-12-22T12:18:04;10.33;;;2.10;;
41966;SDS011;27656;53.068;8.818;2023-12-22T12:20:34;8.73;;;1.80;;
41966;SDS011;27656;53.068;8.818;2023-12-22T12:23:01;11.97;;;2.10;;
41966;SDS011;27656;53.068;8.818;2023-12-22T12:25:29;14.40;;;2.30;;
41966;SDS011;27656;53.068;8.818;2023-12-22T12:28:02;7.37;;;2.17;;
41966;SDS011;27656;53.068;8.818;2023-12-22T12:30:30;15.20;;;2.20;;
41966;SDS011;27656;53.068;8.818;2023-12-22T12:33:07;11.23;;;1.70;;
41966;SDS011;27656;53.068;8.818;2023-12-22T12:35:40;15.63;;;2.40;;
41966;SDS011;27656;53.068;8.818;2023-12-22T12:38:13;16.10;;;2.47;;
41966;SDS011;27656;53.068;8.818;2023-12-22T12:40:43;11.33;;;1.93;;
41966;SDS011;27656;53.068;8.818;2023-12-22T12:43:11;14.43;;;1.80;;
41966;SDS011;27656;53.068;8.818;2023-12-22T12:45:38;9.70;;;1.90;;
41966;SDS011;27656;53.068;8.818;2023-12-22T12:48:07;7.67;;;1.83;;
41966;SDS011;27656;53.068;8.818;2023-12-22T12:50:34;10.07;;;1.60;;
41966;SDS011;27656;53.068;8.818;2023-12-22T12:53:01;17.70;;;2.57;;
41966;SDS011;27656;53.068;8.818;2023-12-22T12:55:28;15.60;;;2.10;;
41966;SDS011;27656;53.068;8.818;2023-12-22T12:57:56;8.63;;;1.70;;
41966;SDS011;27656;53.068;8.818;2023-12-22T13:00:32;10.37;;;1.73;;
41966;SDS011;27656;53.068;8.818;2023-12-22T13:03:02;8.57;;;1.60;;
41966;SDS011;27656;53.068;8.818;2023-12-22T13:05:31;9.10;;;1.83;;
41966;SDS011;27656;53.068;8.818;2023-12-22T13:08:09;8.53;;;2.07;;
41966;SDS011;27656;53.068;8.818;2023-12-22T13:10:36;12.10;;;1.83;;
41966;SDS011;27656;53.068;8.818;2023-12-22T13:13:03;11.93;;;2.07;;
41966;SDS011;27656;53.068;8.818;2023-12-22T13:15:30;16.47;;;2.00;;
41966;SDS011;27656;53.068;8.818;2023-12-22T13:17:57;13.40;;;2.10;;
41966;SDS011;27656;53.068;8.818;2023-12-22T13:20:24;13.33;;;1.77;;
41966;SDS011;27656;53.068;8.818;2023-12-22T13:22:51;12.47;;;1.93;;
41966;SDS011;27656;53.068;8.818;2023-12-22T13:25:17;7.27;;;1.70;;
41966;SDS011;27656;53.068;8.818;2023-12-22T13:27:47;8.77;;;2.00;;
41966;SDS011;27656;53.068;8.818;2023-12-22T13:30:18;13.73;;;1.80;;
41966;SDS011;27656;53.068;8.818;2023-12-22T13:32:58;11.97;;;1.70;;
41966;SDS011;27656;53.068;8.818;2023-12-22T13:35:24;13.27;;;1.60;;
41966;SDS011;27656;53.068;8.818;2023-12-22T13:37:52;11.20;;;2.10;;
41966;SDS011;27656;53.068;8.818;2023-12-22T13:40:20;11.63;;;2.10;;
41966;SDS011;27656;53.068;8.818;2023-12-22T13:42:56;7.70;;;2.47;;
41966;SDS011;27656;53.068;8.818;2023-12-22T13:45:24;8.60;;;1.73;;
41966;SDS011;27656;53.068;8.818;2023-12-22T13:47:52;10.07;;;1.47;;
41966;SDS011;27656;53.068;8.818;2023-12-22T13:50:19;9.83;;;1.80;;
41966;SDS011;27656;53.068;8.818;2023-12-22T13:52:49;8.43;;;1.83;;
41966;SDS011;27656;53.068;8.818;2023-12-22T13:55:18;9.67;;;1.73;;
41966;SDS011;27656;53.068;8.818;2023-12-22T13:57:46;9.97;;;1.70;;
41966;SDS011;27656;53.068;8.818;2023-12-22T14:02:42;2.67;;;0.87;;
41966;SDS011;27656;53.068;8.818;2023-12-22T14:05:09;3.77;;;1.40;;
41966;SDS011;27656;53.068;8.818;2023-12-22T14:07:36;6.97;;;1.63;;
41966;SDS011;27656;53.068;8.818;2023-12-22T14:10:09;3.80;;;1.10;;
41966;SDS011;27656;53.068;8.818;2023-12-22T14:12:36;7.60;;;1.30;;
41966;SDS011;27656;53.068;8.818;2023-12-22T14:15:07;9.37;;;1.37;;
41966;SDS011;27656;53.068;8.818;2023-12-22T14:17:34;7.13;;;1.30;;
41966;SDS011;27656;53.068;8.818;2023-12-22T14:20:01;7.20;;;1.50;;
41966;SDS011;27656;53.068;8.818;2023-12-22T14:22:28;5.00;;;1.13;;
41966;SDS011;27656;53.068;8.818;2023-12-22T14:24:55;6.00;;;1.33;;
41966;SDS011;27656;53.068;8.818;2023-12-22T14:27:24;3.83;;;1.10;;
41966;SDS011;27656;53.068;8.818;2023-12-22T14:29:51;7.90;;;1.27;;
41966;SDS011;27656;53.068;8.818;2023-12-22T14:32:18;3.87;;;1.13;;
41966;SDS011;27656;53.068;8.818;2023-12-22T14:34:47;5.07;;;1.03;;
41966;SDS011;27656;53.068;8.818;2023-12-22T14:37:14;7.17;;;1.07;;
41966;SDS011;27656;53.068;8.818;2023-12-22T14:39:43;7.30;;;1.10;;
41966;SDS011;27656;53.068;8.818;2023-12-22T14:42:11;5.73;;;1.00;;
41966;SDS011;27656;53.068;8.818;2023-12-22T14:44:38;2.47;;;0.80;;
41966;SDS011;27656;53.068;8.818;2023-12-22T14:47:05;6.57;;;1.00;;
41966;SDS011;27656;53.068;8.818;2023-12-22T14:49:35;7.80;;;0.80;;
41966;SDS011;27656;53.068;8.818;2023-12-22T14:52:01;4.70;;;0.97;;
41966;SDS011;27656;53.068;8.818;2023-12-22T14:54:28;11.37;;;0.90;;